createdAt,value
2022-10-02T00:01:33.891Z,15.25
2022-10-02T00:04:04.556Z,15.22
2022-10-02T00:06:43.349Z,15.16
2022-10-02T00:09:22.180Z,15.21
2022-10-02T00:11:58.209Z,15.21
2022-10-02T00:14:35.243Z,15.25
2022-10-02T00:17:05.403Z,15.18
2022-10-02T00:19:34.568Z,15.26
2022-10-02T00:22:22.380Z,15.26
2022-10-02T00:25:00.852Z,15.27
2022-10-02T00:27:50.888Z,15.29
2022-10-02T00:30:20.358Z,15.31
2022-10-02T00:33:05.254Z,15.32
2022-10-02T00:36:08.782Z,15.21
2022-10-02T00:38:52.438Z,15.23
2022-10-02T00:42:10.079Z,15.29
2022-10-02T00:44:57.576Z,15.24
2022-10-02T00:47:42.801Z,15.23
2022-10-02T00:50:29.552Z,15.20
2022-10-02T00:53:16.071Z,15.13
2022-10-02T00:56:10.127Z,14.89
2022-10-02T00:59:09.468Z,15.08
2022-10-02T01:01:47.329Z,14.98
2022-10-02T01:04:22.339Z,15.01
2022-10-02T01:06:51.568Z,14.88
2022-10-02T01:09:20.860Z,14.91
2022-10-02T01:11:50.242Z,14.94
2022-10-02T01:14:19.821Z,14.85
2022-10-02T01:16:50.552Z,14.71
2022-10-02T01:19:32.973Z,14.71
2022-10-02T01:22:12.743Z,14.67
2022-10-02T01:24:50.969Z,14.67
2022-10-02T01:27:20.545Z,14.56
2022-10-02T01:29:56.635Z,14.63
2022-10-02T01:32:28.230Z,14.64
2022-10-02T01:34:58.117Z,14.66
2022-10-02T01:37:31.957Z,14.60
2022-10-02T01:40:09.280Z,14.51
2022-10-02T01:42:39.840Z,14.63
2022-10-02T01:45:11.410Z,14.49
2022-10-02T01:47:52.148Z,14.48
2022-10-02T01:50:34.079Z,14.51
2022-10-02T01:53:13.278Z,14.47
2022-10-02T01:55:53.533Z,14.42
2022-10-02T01:58:33.810Z,14.47
2022-10-02T02:01:13.987Z,14.36
2022-10-02T02:03:54.450Z,14.41
2022-10-02T02:06:32.814Z,14.30
2022-10-02T02:09:10.776Z,14.33
2022-10-02T02:11:49.478Z,14.25
2022-10-02T02:14:25.858Z,14.33
2022-10-02T02:17:03.962Z,14.34
2022-10-02T02:19:38.881Z,14.38
2022-10-02T02:22:16.114Z,14.23
2022-10-02T02:24:52.374Z,14.32
2022-10-02T02:27:28.694Z,14.30
2022-10-02T02:30:08.310Z,14.23
2022-10-02T02:32:43.168Z,14.06
2022-10-02T02:35:17.508Z,14.21
2022-10-02T02:37:51.259Z,14.27
2022-10-02T02:40:25.716Z,14.24
2022-10-02T02:43:05.984Z,14.17
2022-10-02T02:45:39.589Z,13.84
2022-10-02T02:48:16.277Z,14.08
2022-10-02T02:50:50.096Z,13.91
2022-10-02T02:53:25.929Z,14.11
2022-10-02T02:56:00.586Z,14.12
2022-10-02T02:58:39.076Z,14.08
2022-10-02T03:01:08.364Z,14.16
2022-10-02T03:03:37.629Z,14.16
2022-10-02T03:06:28.305Z,14.19
2022-10-02T03:08:57.519Z,14.12
2022-10-02T03:11:46.169Z,14.12
2022-10-02T03:14:45.067Z,14.02
2022-10-02T03:17:28.139Z,14.08
2022-10-02T03:20:10.545Z,14.00
2022-10-02T03:22:52.712Z,14.04
2022-10-02T03:25:31.971Z,14.07
2022-10-02T03:28:08.249Z,14.07
2022-10-02T03:30:41.114Z,14.03
2022-10-02T03:33:15.333Z,13.99
2022-10-02T03:35:46.276Z,13.92
2022-10-02T03:38:17.317Z,13.89
2022-10-02T03:40:46.488Z,13.84
2022-10-02T03:43:22.841Z,13.79
2022-10-02T03:45:53.369Z,13.81
2022-10-02T03:48:22.838Z,13.76
2022-10-02T03:50:52.070Z,13.77
2022-10-02T03:53:25.789Z,13.73
2022-10-02T03:56:02.125Z,13.61
2022-10-02T03:58:31.682Z,13.70
2022-10-02T04:01:08.990Z,13.68
2022-10-02T04:03:42.557Z,13.61
2022-10-02T04:06:16.805Z,13.58
2022-10-02T04:08:52.835Z,13.64
2022-10-02T04:11:31.151Z,13.61
2022-10-02T04:14:10.951Z,13.53
2022-10-02T04:16:47.999Z,13.55
2022-10-02T04:19:23.689Z,13.52
2022-10-02T04:22:00.704Z,13.56
2022-10-02T04:24:38.563Z,13.53
2022-10-02T04:27:16.739Z,13.56
2022-10-02T04:29:51.885Z,13.50
2022-10-02T04:32:27.797Z,13.55
2022-10-02T04:34:58.040Z,13.58
2022-10-02T04:37:57.978Z,13.63
2022-10-02T04:40:54.806Z,13.63
2022-10-02T04:43:44.366Z,13.74
2022-10-02T04:46:47.694Z,13.82
2022-10-02T04:49:28.553Z,13.77
2022-10-02T04:52:16.253Z,13.83
2022-10-02T04:55:07.602Z,13.81
2022-10-02T04:58:12.172Z,13.85
2022-10-02T05:00:50.461Z,13.89
2022-10-02T05:03:49.245Z,13.90
2022-10-02T05:06:38.839Z,13.95
2022-10-02T05:09:24.821Z,13.93
2022-10-02T05:12:30.242Z,13.92
2022-10-02T05:15:19.382Z,14.03
2022-10-02T05:18:09.031Z,14.03
2022-10-02T05:21:07.793Z,13.96
2022-10-02T05:23:58.709Z,13.91
2022-10-02T05:26:48.690Z,13.82
2022-10-02T05:30:05.185Z,13.79
2022-10-02T05:33:10.736Z,13.67
2022-10-02T05:36:08.480Z,13.60
2022-10-02T05:39:03.635Z,13.48
2022-10-02T05:41:49.879Z,13.48
2022-10-02T05:44:23.664Z,13.43
2022-10-02T05:47:01.776Z,13.45
2022-10-02T05:49:36.135Z,13.42
2022-10-02T05:52:14.056Z,13.38
2022-10-02T05:54:55.908Z,13.35
2022-10-02T05:57:33.984Z,13.27
2022-10-02T06:00:18.220Z,13.21
2022-10-02T06:02:56.890Z,13.12
2022-10-02T06:05:31.684Z,13.15
2022-10-02T06:08:05.125Z,13.16
2022-10-02T06:10:42.786Z,13.05
2022-10-02T06:13:19.882Z,13.12
2022-10-02T06:15:53.784Z,13.13
2022-10-02T06:18:28.591Z,13.07
2022-10-02T06:21:03.776Z,13.02
2022-10-02T06:23:39.648Z,13.02
2022-10-02T06:26:17.965Z,13.01
2022-10-02T06:28:54.717Z,12.94
2022-10-02T06:31:35.503Z,12.97
2022-10-02T06:34:04.754Z,13.02
2022-10-02T06:37:05.938Z,13.04
2022-10-02T06:40:34.820Z,13.07
2022-10-02T06:43:15.063Z,13.16
2022-10-02T06:45:58.546Z,13.24
2022-10-02T06:48:41.007Z,13.24
2022-10-02T06:51:21.711Z,13.28
2022-10-02T06:54:11.979Z,13.25
2022-10-02T06:57:07.200Z,13.35
2022-10-02T06:59:59.246Z,13.43
2022-10-02T07:02:59.453Z,13.36
2022-10-02T07:05:55.409Z,13.50
2022-10-02T07:08:39.875Z,13.53
2022-10-02T07:11:20.660Z,13.59
2022-10-02T07:14:15.492Z,13.65
2022-10-02T07:17:03.180Z,13.62
2022-10-02T07:20:06.643Z,13.68
2022-10-02T07:22:56.483Z,13.72
2022-10-02T07:26:00.247Z,13.76
2022-10-02T07:28:38.617Z,13.83
2022-10-02T07:31:23.316Z,13.81
2022-10-02T07:34:13.251Z,13.77
2022-10-02T07:36:57.186Z,13.79
2022-10-02T07:39:46.457Z,13.90
2022-10-02T07:42:55.322Z,13.90
2022-10-02T07:45:37.963Z,14.06
2022-10-02T07:48:44.733Z,14.19
2022-10-02T07:51:56.410Z,14.35
2022-10-02T07:55:00.160Z,14.51
2022-10-02T07:57:39.567Z,14.67
2022-10-02T08:00:15.309Z,14.69
2022-10-02T08:02:58.150Z,14.92
2022-10-02T08:05:31.266Z,15.04
2022-10-02T08:08:08.350Z,15.06
2022-10-02T08:10:42.935Z,15.11
2022-10-02T08:13:20.647Z,15.01
2022-10-02T08:15:55.984Z,15.18
2022-10-02T08:18:35.339Z,15.35
2022-10-02T08:21:11.023Z,15.49
2022-10-02T08:23:48.568Z,15.73
2022-10-02T08:26:26.706Z,16.13
2022-10-02T08:29:05.547Z,16.42
2022-10-02T08:31:36.149Z,16.55
2022-10-02T08:34:18.189Z,16.64
2022-10-02T08:37:13.297Z,16.69
2022-10-02T08:40:28.556Z,16.56
2022-10-02T08:43:51.545Z,16.46
2022-10-02T08:47:40.701Z,16.42
2022-10-02T08:50:44.392Z,16.34
2022-10-02T08:54:15.659Z,16.74
2022-10-02T08:57:07.905Z,17.39
2022-10-02T09:00:08.265Z,18.15
2022-10-02T09:03:33.617Z,18.61
2022-10-02T09:07:00.898Z,19.27
2022-10-02T09:10:08.579Z,19.38
2022-10-02T09:13:34.833Z,19.79
2022-10-02T09:16:12.380Z,20.25
2022-10-02T09:19:00.150Z,20.45
2022-10-02T09:21:52.202Z,20.76
2022-10-02T09:25:15.967Z,20.91
2022-10-02T09:28:50.986Z,21.16
2022-10-02T09:32:34.579Z,20.87
2022-10-02T09:35:52.975Z,20.80
2022-10-02T09:39:05.837Z,20.39
2022-10-02T09:42:43.511Z,20.02
2022-10-02T09:46:21.741Z,20.24
2022-10-02T09:49:25.560Z,20.02
2022-10-02T09:52:58.230Z,19.60
2022-10-02T09:56:20.993Z,19.51
2022-10-02T09:59:32.905Z,19.46
2022-10-02T10:02:57.243Z,19.40
2022-10-02T10:05:59.242Z,19.32
2022-10-02T10:09:40.530Z,19.26
2022-10-02T10:12:49.481Z,19.16
2022-10-02T10:16:06.753Z,19.11
2022-10-02T10:19:23.734Z,19.15
2022-10-02T10:23:01.682Z,19.10
2022-10-02T10:26:08.885Z,19.09
2022-10-02T10:29:27.718Z,19.20
2022-10-02T10:32:54.975Z,19.37
2022-10-02T10:35:53.933Z,19.53
2022-10-02T10:38:43.172Z,19.59
2022-10-02T10:41:56.000Z,19.98
2022-10-02T10:44:59.682Z,20.15
2022-10-02T10:47:56.859Z,20.19
2022-10-02T10:50:50.240Z,20.42
2022-10-02T10:54:06.331Z,20.65
2022-10-02T10:56:40.524Z,21.21
2022-10-02T10:59:45.784Z,22.14
2022-10-02T11:02:54.700Z,22.59
2022-10-02T11:06:12.938Z,23.17
2022-10-02T11:09:28.242Z,23.54
2022-10-02T11:12:21.712Z,23.82
2022-10-02T11:15:17.714Z,23.98
2022-10-02T11:18:17.156Z,23.52
2022-10-02T11:21:21.241Z,23.23
2022-10-02T11:24:18.693Z,22.97
2022-10-02T11:27:25.081Z,22.55
2022-10-02T11:30:21.398Z,22.51
2022-10-02T11:33:41.572Z,23.36
2022-10-02T11:36:52.665Z,23.96
2022-10-02T11:39:59.376Z,24.47
2022-10-02T11:42:55.998Z,24.22
2022-10-02T11:45:55.704Z,23.96
2022-10-02T11:49:06.877Z,23.22
2022-10-02T11:52:12.961Z,22.74
2022-10-02T11:55:17.733Z,21.92
2022-10-02T11:58:06.328Z,22.40
2022-10-02T12:01:07.334Z,21.79
2022-10-02T12:03:57.806Z,21.47
2022-10-02T12:06:52.856Z,21.43
2022-10-02T12:09:34.174Z,21.76
2022-10-02T12:12:23.402Z,22.58
2022-10-02T12:15:06.574Z,23.62
2022-10-02T12:18:19.479Z,25.02
2022-10-02T12:21:27.015Z,25.65
2022-10-02T12:24:20.569Z,25.21
2022-10-02T12:27:04.096Z,24.74
2022-10-02T12:30:04.216Z,24.87
2022-10-02T12:33:02.294Z,25.27
2022-10-02T12:35:52.491Z,24.84
2022-10-02T12:38:36.069Z,25.04
2022-10-02T12:41:18.891Z,25.46
2022-10-02T12:44:33.531Z,26.36
2022-10-02T12:47:41.529Z,26.75
2022-10-02T12:50:23.498Z,26.73
2022-10-02T12:53:51.553Z,26.18
2022-10-02T12:57:08.732Z,25.78
2022-10-02T12:59:50.047Z,25.08
2022-10-02T13:03:05.574Z,24.83
2022-10-02T13:06:19.402Z,24.23
2022-10-02T13:09:16.626Z,23.45
2022-10-02T13:12:03.557Z,22.83
2022-10-02T13:14:54.851Z,22.23
2022-10-02T13:17:36.008Z,22.07
2022-10-02T13:20:20.453Z,21.95
2022-10-02T13:22:59.956Z,21.47
2022-10-02T13:25:54.551Z,20.93
2022-10-02T13:28:58.642Z,20.87
2022-10-02T13:31:55.549Z,20.71
2022-10-02T13:34:55.713Z,20.69
2022-10-02T13:37:39.294Z,20.52
2022-10-02T13:40:32.573Z,20.36
2022-10-02T13:43:58.661Z,20.47
2022-10-02T13:47:00.704Z,20.43
2022-10-02T13:49:54.257Z,20.51
2022-10-02T13:52:36.915Z,20.65
2022-10-02T13:55:26.106Z,20.66
2022-10-02T13:58:38.845Z,20.78
2022-10-02T14:01:24.950Z,20.94
2022-10-02T14:04:23.530Z,21.40
2022-10-02T14:07:05.507Z,21.41
2022-10-02T14:09:54.875Z,21.58
2022-10-02T14:12:33.841Z,21.27
2022-10-02T14:15:40.192Z,21.22
2022-10-02T14:18:45.737Z,21.10
2022-10-02T14:21:24.950Z,21.07
2022-10-02T14:24:46.798Z,20.93
2022-10-02T14:27:25.533Z,20.65
2022-10-02T14:30:03.531Z,20.66
2022-10-02T14:32:55.087Z,20.46
2022-10-02T14:35:43.105Z,20.34
2022-10-02T14:38:37.592Z,20.17
2022-10-02T14:41:40.340Z,20.03
2022-10-02T14:44:47.296Z,20.04
2022-10-02T14:47:31.016Z,19.99
2022-10-02T14:50:34.221Z,19.98
2022-10-02T14:53:34.969Z,20.03
2022-10-02T14:56:48.730Z,20.04
2022-10-02T14:59:42.498Z,20.00
2022-10-02T15:02:41.337Z,19.90
2022-10-02T15:05:34.550Z,19.89
2022-10-02T15:08:11.678Z,19.87
2022-10-02T15:10:42.297Z,19.90
2022-10-02T15:13:26.861Z,19.54
2022-10-02T15:16:20.619Z,19.79
2022-10-02T15:18:58.775Z,19.84
2022-10-02T15:21:33.133Z,19.65
2022-10-02T15:24:34.194Z,19.67
2022-10-02T15:27:21.833Z,19.80
2022-10-02T15:30:15.400Z,19.75
2022-10-02T15:33:00.437Z,19.79
2022-10-02T15:36:11.630Z,19.72
2022-10-02T15:39:17.138Z,19.68
2022-10-02T15:41:55.696Z,19.58
2022-10-02T15:45:13.795Z,19.63
2022-10-02T15:48:20.373Z,19.67
2022-10-02T15:50:58.817Z,19.66
2022-10-02T15:53:45.132Z,19.56
2022-10-02T15:56:57.693Z,19.51
2022-10-02T15:59:41.548Z,19.54
2022-10-02T16:02:27.298Z,19.62
2022-10-02T16:05:19.653Z,19.49
2022-10-02T16:08:46.699Z,19.56
2022-10-02T16:11:53.377Z,19.37
2022-10-02T16:14:38.063Z,19.32
2022-10-02T16:17:39.782Z,19.31
2022-10-02T16:20:31.990Z,19.40
2022-10-02T16:23:34.291Z,19.41
2022-10-02T16:26:20.947Z,19.32
2022-10-02T16:29:09.901Z,19.38
2022-10-02T16:32:04.432Z,19.41
2022-10-02T16:34:49.405Z,19.45
2022-10-02T16:37:29.327Z,19.40
2022-10-02T16:40:03.296Z,19.43
2022-10-02T16:42:49.378Z,19.37
2022-10-02T16:45:56.448Z,19.40
2022-10-02T16:48:38.682Z,19.44
2022-10-02T16:51:34.929Z,19.39
2022-10-02T16:54:18.525Z,19.32
2022-10-02T16:56:55.523Z,19.22
2022-10-02T16:59:29.484Z,19.21
2022-10-02T17:02:17.408Z,19.19
2022-10-02T17:05:03.400Z,19.21
2022-10-02T17:07:51.028Z,19.02
2022-10-02T17:10:34.635Z,18.93
2022-10-02T17:13:19.985Z,19.00
2022-10-02T17:15:56.585Z,18.87
2022-10-02T17:18:34.697Z,18.96
2022-10-02T17:21:16.966Z,18.95
2022-10-02T17:24:00.048Z,18.93
2022-10-02T17:26:40.988Z,18.89
2022-10-02T17:29:22.945Z,18.94
2022-10-02T17:31:54.841Z,18.88
2022-10-02T17:34:26.757Z,18.90
2022-10-02T17:37:07.252Z,18.84
2022-10-02T17:40:01.164Z,18.77
2022-10-02T17:42:46.289Z,18.81
2022-10-02T17:45:33.190Z,18.73
2022-10-02T17:48:20.605Z,18.63
2022-10-02T17:51:39.029Z,18.67
2022-10-02T17:54:42.611Z,18.69
2022-10-02T17:57:34.741Z,18.67
2022-10-02T18:00:21.396Z,18.69
2022-10-02T18:03:39.971Z,18.66
2022-10-02T18:06:21.427Z,18.56
2022-10-02T18:09:37.063Z,18.57
2022-10-02T18:12:36.539Z,18.53
2022-10-02T18:15:28.395Z,18.50
2022-10-02T18:18:19.112Z,18.47
2022-10-02T18:21:03.654Z,18.40
2022-10-02T18:24:05.373Z,18.50
2022-10-02T18:26:52.002Z,18.51
2022-10-02T18:29:37.424Z,18.42
2022-10-02T18:32:31.162Z,18.46
2022-10-02T18:35:29.296Z,18.50
2022-10-02T18:38:18.481Z,18.49
2022-10-02T18:41:10.265Z,18.44
2022-10-02T18:43:55.404Z,18.50
2022-10-02T18:46:49.713Z,18.50
2022-10-02T18:49:40.178Z,18.58
2022-10-02T18:52:59.279Z,18.54
2022-10-02T18:56:03.575Z,18.53
2022-10-02T18:58:57.802Z,18.44
2022-10-02T19:01:53.095Z,18.47
2022-10-02T19:05:05.185Z,18.42
2022-10-02T19:07:43.166Z,18.42
2022-10-02T19:10:40.900Z,18.44
2022-10-02T19:13:22.336Z,18.43
2022-10-02T19:15:54.018Z,18.35
2022-10-02T19:18:26.080Z,18.29
2022-10-02T19:21:08.460Z,18.40
2022-10-02T19:23:42.847Z,18.40
2022-10-02T19:26:21.526Z,18.46
2022-10-02T19:28:55.345Z,18.40
2022-10-02T19:31:29.379Z,18.47
2022-10-02T19:34:03.590Z,18.47
2022-10-02T19:36:40.177Z,18.39
2022-10-02T19:39:20.363Z,18.47
2022-10-02T19:41:49.948Z,18.37
2022-10-02T19:44:25.344Z,18.41
2022-10-02T19:46:58.694Z,18.35
2022-10-02T19:49:32.266Z,18.37
2022-10-02T19:52:04.603Z,18.36
2022-10-02T19:54:40.942Z,18.27
2022-10-02T19:57:16.522Z,18.36
2022-10-02T19:59:49.823Z,18.35
2022-10-02T20:02:27.505Z,18.30
2022-10-02T20:05:01.906Z,18.27
2022-10-02T20:07:35.764Z,18.22
2022-10-02T20:10:12.386Z,18.23
2022-10-02T20:12:47.581Z,18.15
2022-10-02T20:15:42.014Z,18.18
2022-10-02T20:18:13.290Z,18.17
2022-10-02T20:20:47.311Z,18.16
2022-10-02T20:23:26.873Z,18.14
2022-10-02T20:26:01.178Z,18.07
2022-10-02T20:28:39.221Z,18.09
2022-10-02T20:31:17.388Z,18.12
2022-10-02T20:33:50.550Z,18.06
2022-10-02T20:36:26.258Z,18.12
2022-10-02T20:39:02.741Z,18.11
2022-10-02T20:41:52.294Z,18.07
2022-10-02T20:44:21.869Z,18.03
2022-10-02T20:47:44.226Z,18.07
2022-10-02T20:50:47.997Z,18.01
2022-10-02T20:54:18.105Z,18.02
2022-10-02T20:58:02.099Z,18.02
2022-10-02T21:00:42.442Z,17.99
2022-10-02T21:03:42.435Z,17.97
2022-10-02T21:06:47.491Z,17.99
2022-10-02T21:09:49.646Z,17.98
2022-10-02T21:13:04.322Z,17.88
2022-10-02T21:16:07.688Z,17.49
2022-10-02T21:19:11.549Z,17.89
2022-10-02T21:22:36.360Z,17.84
2022-10-02T21:25:55.751Z,17.86
2022-10-02T21:29:23.531Z,17.86
2022-10-02T21:32:32.024Z,17.89
2022-10-02T21:35:16.872Z,17.92
2022-10-02T21:38:09.999Z,17.92
2022-10-02T21:41:23.542Z,17.96
2022-10-02T21:45:04.847Z,17.94
2022-10-02T21:48:27.704Z,17.92
2022-10-02T21:52:03.661Z,17.91
2022-10-02T21:55:19.229Z,17.84
2022-10-02T21:58:39.845Z,17.86
2022-10-02T22:02:08.577Z,17.85
2022-10-02T22:05:25.941Z,17.86
2022-10-02T22:08:08.209Z,17.83
2022-10-02T22:10:49.414Z,17.74
2022-10-02T22:13:28.340Z,17.72
2022-10-02T22:16:20.180Z,17.78
2022-10-02T22:18:55.861Z,17.68
2022-10-02T22:22:07.375Z,17.72
2022-10-02T22:25:04.922Z,17.74
2022-10-02T22:28:15.643Z,17.76
2022-10-02T22:31:09.699Z,17.75
2022-10-02T22:34:05.244Z,17.70
2022-10-02T22:37:08.113Z,17.67
2022-10-02T22:39:43.854Z,17.67
2022-10-02T22:42:20.525Z,17.59
2022-10-02T22:44:57.858Z,17.59
2022-10-02T22:47:36.470Z,17.65
2022-10-02T22:50:13.131Z,17.61
2022-10-02T22:52:49.874Z,17.53
2022-10-02T22:55:28.997Z,17.55
2022-10-02T22:58:03.979Z,17.54
2022-10-02T23:00:51.254Z,17.47
2022-10-02T23:03:31.506Z,17.49
2022-10-02T23:06:05.892Z,17.42
2022-10-02T23:08:43.023Z,17.46
2022-10-02T23:11:18.748Z,17.42
2022-10-02T23:13:53.645Z,17.42
2022-10-02T23:16:35.216Z,17.40
2022-10-02T23:19:13.667Z,17.33
2022-10-02T23:21:50.064Z,17.35
2022-10-02T23:24:28.645Z,17.26
2022-10-02T23:27:11.995Z,17.01
2022-10-02T23:29:53.639Z,17.31
2022-10-02T23:32:32.124Z,17.28
2022-10-02T23:35:12.250Z,17.23
2022-10-02T23:37:52.365Z,17.24
2022-10-02T23:40:44.207Z,17.19
2022-10-02T23:43:20.531Z,17.12
2022-10-02T23:45:58.782Z,17.22
2022-10-02T23:48:31.156Z,17.22
2022-10-02T23:51:16.143Z,17.18
2022-10-02T23:54:14.450Z,17.23
2022-10-02T23:57:19.610Z,17.10
